createdAt,value
2019-05-29T00:00:15.147Z,86.60
2019-05-29T00:02:44.497Z,87.00
2019-05-29T00:05:14.302Z,87.00
2019-05-29T00:07:43.714Z,87.20
2019-05-29T00:10:14.392Z,87.70
2019-05-29T00:12:43.677Z,88.00
2019-05-29T00:15:14.488Z,88.80
2019-05-29T00:17:43.822Z,88.90
2019-05-29T00:20:14.518Z,89.20
2019-05-29T00:22:43.929Z,89.70
2019-05-29T00:25:14.813Z,90.00
2019-05-29T00:27:44.180Z,90.10
2019-05-29T00:30:14.911Z,90.40
2019-05-29T00:32:44.330Z,90.60
2019-05-29T00:35:14.330Z,90.80
2019-05-29T00:37:43.742Z,91.30
2019-05-29T00:40:14.963Z,91.20
2019-05-29T00:42:44.540Z,91.30
2019-05-29T00:45:14.095Z,91.60
2019-05-29T00:47:43.463Z,91.80
2019-05-29T00:50:14.138Z,92.10
2019-05-29T00:52:43.519Z,92.30
2019-05-29T00:55:13.054Z,92.40
2019-05-29T00:57:42.347Z,92.60
2019-05-29T01:00:13.156Z,92.90
2019-05-29T01:02:42.771Z,93.10
2019-05-29T01:05:12.262Z,93.40
2019-05-29T01:07:41.540Z,93.60
2019-05-29T01:10:12.984Z,93.80
2019-05-29T01:12:42.125Z,94.00
2019-05-29T01:15:13.234Z,94.30
2019-05-29T01:17:42.666Z,94.40
2019-05-29T01:20:13.920Z,94.50
2019-05-29T01:22:43.419Z,94.80
2019-05-29T01:25:12.840Z,95.00
2019-05-29T01:27:42.141Z,95.10
2019-05-29T01:30:11.640Z,95.40
2019-05-29T01:32:41.027Z,95.40
2019-05-29T01:35:10.376Z,95.70
2019-05-29T01:37:39.651Z,96.00
2019-05-29T01:40:19.276Z,96.20
2019-05-29T01:42:40.304Z,96.50
2019-05-29T01:45:09.824Z,96.70
2019-05-29T01:47:39.167Z,97.00
2019-05-29T01:50:08.548Z,97.30
2019-05-29T01:52:37.934Z,97.60
2019-05-29T01:55:07.948Z,98.10
2019-05-29T01:57:37.244Z,98.20
2019-05-29T02:00:07.919Z,98.40
2019-05-29T02:02:37.210Z,98.70
2019-05-29T02:05:06.653Z,98.90
2019-05-29T02:07:36.038Z,99.20
2019-05-29T02:10:07.499Z,99.50
2019-05-29T02:12:36.790Z,99.80
2019-05-29T02:15:22.675Z,99.90
2019-05-29T02:17:38.215Z,99.90
2019-05-29T02:20:08.454Z,99.90
2019-05-29T02:22:37.787Z,99.90
2019-05-29T02:25:07.513Z,99.90
2019-05-29T02:27:36.798Z,99.90
2019-05-29T02:30:06.994Z,99.90
2019-05-29T02:32:36.293Z,99.90
2019-05-29T02:35:06.197Z,99.90
2019-05-29T02:37:35.557Z,99.90
2019-05-29T02:40:05.570Z,99.90
2019-05-29T02:42:34.956Z,99.90
2019-05-29T02:45:04.679Z,99.90
2019-05-29T02:47:34.074Z,99.90
2019-05-29T02:50:03.446Z,99.90
2019-05-29T02:52:32.820Z,99.90
2019-05-29T02:55:02.218Z,99.90
2019-05-29T02:57:31.680Z,99.90
2019-05-29T03:00:01.005Z,99.90
2019-05-29T03:02:32.094Z,99.90
2019-05-29T03:05:01.617Z,99.90
2019-05-29T03:07:32.575Z,99.90
2019-05-29T03:10:02.040Z,99.90
2019-05-29T03:12:31.908Z,99.90
2019-05-29T03:15:02.331Z,99.90
2019-05-29T03:17:31.973Z,99.90
2019-05-29T03:20:01.519Z,99.90
2019-05-29T03:22:32.749Z,99.90
2019-05-29T03:25:01.920Z,99.90
2019-05-29T03:27:32.022Z,99.90
2019-05-29T03:30:01.596Z,99.90
2019-05-29T03:32:37.736Z,99.90
2019-05-29T03:35:02.079Z,99.90
2019-05-29T03:37:32.468Z,99.90
2019-05-29T03:40:01.992Z,99.90
2019-05-29T03:42:32.549Z,99.90
2019-05-29T03:45:02.052Z,99.90
2019-05-29T03:47:33.037Z,99.90
2019-05-29T03:50:02.517Z,99.90
2019-05-29T03:52:32.695Z,99.90
2019-05-29T03:55:03.005Z,99.90
2019-05-29T03:57:33.830Z,99.90
2019-05-29T04:00:03.703Z,99.90
2019-05-29T04:02:33.389Z,99.90
2019-05-29T04:05:04.930Z,99.90
2019-05-29T04:07:35.612Z,99.90
2019-05-29T04:10:07.558Z,99.90
2019-05-29T04:12:38.038Z,99.90
2019-05-29T04:15:10.151Z,99.90
2019-05-29T04:17:41.220Z,99.90
2019-05-29T04:20:11.031Z,99.90
2019-05-29T04:22:45.441Z,99.90
2019-05-29T04:25:15.282Z,99.90
2019-05-29T04:27:46.087Z,99.90
2019-05-29T04:30:15.668Z,99.90
2019-05-29T04:32:45.001Z,99.90
2019-05-29T04:35:14.417Z,99.90
2019-05-29T04:37:43.766Z,99.90
2019-05-29T04:40:13.271Z,99.90
2019-05-29T04:42:42.703Z,99.90
2019-05-29T04:45:12.924Z,99.90
2019-05-29T04:47:42.273Z,99.90
2019-05-29T04:50:11.782Z,99.90
2019-05-29T04:52:41.228Z,99.90
2019-05-29T04:55:10.637Z,99.90
2019-05-29T04:57:39.984Z,99.90
2019-05-29T05:00:09.467Z,99.90
2019-05-29T05:02:39.443Z,99.90
2019-05-29T05:05:09.197Z,99.90
2019-05-29T05:07:39.620Z,99.90
2019-05-29T05:10:09.717Z,99.90
2019-05-29T05:12:40.173Z,99.90
2019-05-29T05:15:10.040Z,99.90
2019-05-29T05:17:40.104Z,99.90
2019-05-29T05:20:09.979Z,99.90
2019-05-29T05:22:40.959Z,99.90
2019-05-29T05:25:10.818Z,99.90
2019-05-29T05:27:40.693Z,99.90
2019-05-29T05:30:10.242Z,99.90
2019-05-29T05:32:40.947Z,99.90
2019-05-29T05:35:14.215Z,99.90
2019-05-29T05:37:41.920Z,99.90
2019-05-29T05:40:11.816Z,99.90
2019-05-29T05:42:41.356Z,99.90
2019-05-29T05:45:10.964Z,99.00
2019-05-29T05:47:54.021Z,97.70
2019-05-29T05:50:11.461Z,95.60
2019-05-29T05:52:41.640Z,94.60
2019-05-29T05:55:11.263Z,93.00
2019-05-29T05:57:41.869Z,91.90
2019-05-29T06:00:11.894Z,90.50
2019-05-29T06:02:42.134Z,87.70
2019-05-29T06:05:12.225Z,85.00
2019-05-29T06:07:42.500Z,83.70
2019-05-29T06:10:12.528Z,82.20
2019-05-29T06:12:42.866Z,79.30
2019-05-29T06:15:12.653Z,76.70
2019-05-29T06:17:51.427Z,75.10
2019-05-29T06:20:13.502Z,73.10
2019-05-29T06:22:43.675Z,70.70
2019-05-29T06:25:13.449Z,67.00
2019-05-29T06:27:43.329Z,67.50
2019-05-29T06:30:13.042Z,66.40
2019-05-29T06:32:43.530Z,64.90
2019-05-29T06:35:13.288Z,61.30
2019-05-29T06:37:43.665Z,61.60
2019-05-29T06:40:13.160Z,60.70
2019-05-29T06:42:42.494Z,59.90
2019-05-29T06:45:11.960Z,59.80
2019-05-29T06:47:42.637Z,59.10
2019-05-29T06:50:12.321Z,58.30
2019-05-29T06:52:41.615Z,55.60
2019-05-29T06:55:11.115Z,54.60
2019-05-29T06:57:40.428Z,54.40
2019-05-29T07:00:09.914Z,53.30
2019-05-29T07:02:40.406Z,52.00
2019-05-29T07:05:12.072Z,49.10
2019-05-29T07:07:42.462Z,48.40
2019-05-29T07:10:13.252Z,46.70
2019-05-29T07:12:42.711Z,44.90
2019-05-29T07:15:11.999Z,44.20
2019-05-29T07:17:42.260Z,43.40
2019-05-29T07:20:12.477Z,42.40
2019-05-29T07:22:43.029Z,41.50
2019-05-29T07:25:31.585Z,39.90
2019-05-29T07:28:01.077Z,38.50
2019-05-29T07:30:31.184Z,38.30
2019-05-29T07:33:00.571Z,39.00
2019-05-29T07:35:29.897Z,38.10
2019-05-29T07:37:59.306Z,39.30
2019-05-29T07:40:28.665Z,38.40
2019-05-29T07:42:58.081Z,37.90
2019-05-29T07:45:27.497Z,36.80
2019-05-29T07:47:56.832Z,36.90
2019-05-29T07:50:26.130Z,36.10
2019-05-29T07:52:55.668Z,35.10
2019-05-29T07:55:25.026Z,34.70
2019-05-29T07:57:54.439Z,33.70
2019-05-29T08:00:34.745Z,33.30
2019-05-29T08:02:54.852Z,33.10
2019-05-29T08:05:24.226Z,32.40
2019-05-29T08:07:53.638Z,31.70
2019-05-29T08:10:23.726Z,30.80
2019-05-29T08:12:55.530Z,30.70
2019-05-29T08:15:24.284Z,31.50
2019-05-29T08:17:57.365Z,31.10
2019-05-29T08:20:26.863Z,30.00
2019-05-29T08:22:56.274Z,29.50
2019-05-29T08:25:25.703Z,29.00
2019-05-29T08:27:55.444Z,29.10
2019-05-29T08:30:24.869Z,29.70
2019-05-29T08:32:54.219Z,30.50
2019-05-29T08:35:23.678Z,31.00
2019-05-29T08:37:53.072Z,32.20
2019-05-29T08:40:23.866Z,32.40
2019-05-29T08:42:53.305Z,32.70
2019-05-29T08:45:22.903Z,32.80
2019-05-29T08:47:52.375Z,33.60
2019-05-29T08:50:21.731Z,33.10
2019-05-29T08:52:52.200Z,31.90
2019-05-29T08:55:21.800Z,31.30
2019-05-29T08:57:52.415Z,31.10
2019-05-29T09:00:22.403Z,31.80
2019-05-29T09:02:52.818Z,33.10
2019-05-29T09:05:22.243Z,34.40
2019-05-29T09:07:52.674Z,35.40
2019-05-29T09:10:22.682Z,36.40
2019-05-29T09:13:03.566Z,37.60
2019-05-29T09:15:23.382Z,38.10
2019-05-29T09:17:55.102Z,38.90
2019-05-29T09:20:37.244Z,39.50
2019-05-29T09:22:58.673Z,39.90
2019-05-29T09:25:28.434Z,40.10
2019-05-29T09:27:58.843Z,39.70
2019-05-29T09:30:28.506Z,39.60
2019-05-29T09:32:57.995Z,39.70
2019-05-29T09:35:27.454Z,40.30
2019-05-29T09:37:56.957Z,41.10
2019-05-29T09:40:26.501Z,41.70
2019-05-29T09:42:56.052Z,42.60
2019-05-29T09:45:26.585Z,42.80
2019-05-29T09:47:56.155Z,43.90
2019-05-29T09:50:27.597Z,44.20
2019-05-29T09:52:58.620Z,44.90
2019-05-29T09:55:28.097Z,45.10
2019-05-29T09:57:58.682Z,45.40
2019-05-29T10:00:28.186Z,46.40
2019-05-29T10:02:57.734Z,46.00
2019-05-29T10:05:27.213Z,46.40
2019-05-29T10:07:58.033Z,46.50
2019-05-29T10:10:27.755Z,46.60
2019-05-29T10:12:58.108Z,46.80
2019-05-29T10:15:27.816Z,47.30
2019-05-29T10:17:58.463Z,47.50
2019-05-29T10:20:28.092Z,47.40
2019-05-29T10:22:57.558Z,47.80
2019-05-29T10:25:27.047Z,47.50
2019-05-29T10:27:56.488Z,47.00
2019-05-29T10:30:28.287Z,46.30
2019-05-29T10:32:57.718Z,45.10
2019-05-29T10:35:27.183Z,44.60
2019-05-29T10:37:56.785Z,44.20
2019-05-29T10:40:26.247Z,43.70
2019-05-29T10:42:55.710Z,43.30
2019-05-29T10:45:25.195Z,43.70
2019-05-29T10:47:54.647Z,43.70
2019-05-29T10:50:24.102Z,43.20
2019-05-29T10:52:54.237Z,42.00
2019-05-29T10:55:24.693Z,41.30
2019-05-29T10:57:55.172Z,41.30
2019-05-29T11:00:24.773Z,41.10
2019-05-29T11:02:55.873Z,41.00
2019-05-29T11:05:25.452Z,41.10
2019-05-29T11:07:55.975Z,41.30
2019-05-29T11:10:25.741Z,41.80
2019-05-29T11:12:55.505Z,42.30
2019-05-29T11:15:28.966Z,42.40
2019-05-29T11:17:58.527Z,42.50
2019-05-29T11:20:28.305Z,42.10
2019-05-29T11:22:57.921Z,41.90
2019-05-29T11:25:28.137Z,42.00
2019-05-29T11:27:58.684Z,42.30
2019-05-29T11:30:28.331Z,42.60
2019-05-29T11:33:01.028Z,43.40
2019-05-29T11:35:28.924Z,43.20
2019-05-29T11:37:58.863Z,42.60
2019-05-29T11:40:28.646Z,42.40
2019-05-29T11:42:59.176Z,42.50
2019-05-29T11:45:28.977Z,41.90
2019-05-29T11:48:01.163Z,41.50
2019-05-29T11:50:29.800Z,41.80
2019-05-29T11:52:59.348Z,42.20
2019-05-29T11:55:28.765Z,42.60
2019-05-29T11:57:58.311Z,42.80
2019-05-29T12:00:28.118Z,42.90
2019-05-29T12:02:57.822Z,43.30
2019-05-29T12:05:27.313Z,43.60
2019-05-29T12:07:57.531Z,43.50
2019-05-29T12:10:27.140Z,43.80
2019-05-29T12:12:57.576Z,44.10
2019-05-29T12:15:27.042Z,43.80
2019-05-29T12:18:18.476Z,43.00
2019-05-29T12:20:28.749Z,43.10
2019-05-29T12:23:21.483Z,43.10
2019-05-29T12:25:29.912Z,42.90
2019-05-29T12:27:59.389Z,42.70
2019-05-29T12:30:29.125Z,42.60
2019-05-29T12:32:59.147Z,41.10
2019-05-29T12:35:28.621Z,40.30
2019-05-29T12:37:59.314Z,40.00
2019-05-29T12:40:29.193Z,39.70
2019-05-29T12:43:00.092Z,38.90
2019-05-29T12:45:29.856Z,38.90
2019-05-29T12:47:59.807Z,39.00
2019-05-29T12:50:33.604Z,39.20
2019-05-29T12:53:01.736Z,39.20
2019-05-29T12:55:31.377Z,40.10
2019-05-29T12:58:02.203Z,40.70
2019-05-29T13:00:31.894Z,41.00
2019-05-29T13:03:05.067Z,41.40
2019-05-29T13:05:32.435Z,42.00
2019-05-29T13:08:03.103Z,42.30
2019-05-29T13:10:32.708Z,42.90
2019-05-29T13:13:08.436Z,42.80
2019-05-29T13:15:33.318Z,43.30
2019-05-29T13:18:07.874Z,43.70
2019-05-29T13:20:33.935Z,44.00
2019-05-29T13:23:05.476Z,44.40
2019-05-29T13:25:36.230Z,44.40
2019-05-29T13:28:06.174Z,43.70
2019-05-29T13:30:35.591Z,43.20
2019-05-29T13:33:07.404Z,43.40
2019-05-29T13:35:36.180Z,43.90
2019-05-29T13:38:07.178Z,44.40
2019-05-29T13:40:36.801Z,44.40
2019-05-29T13:43:14.727Z,44.50
2019-05-29T13:45:37.503Z,45.80
2019-05-29T13:48:09.116Z,45.40
2019-05-29T13:50:38.900Z,45.80
2019-05-29T13:53:08.376Z,46.30
2019-05-29T13:55:37.933Z,46.80
2019-05-29T13:58:07.898Z,47.20
2019-05-29T14:00:37.352Z,47.50
2019-05-29T14:03:08.833Z,47.60
2019-05-29T14:05:39.146Z,47.10
2019-05-29T14:08:09.111Z,45.80
2019-05-29T14:10:38.892Z,44.30
2019-05-29T14:13:09.384Z,42.60
2019-05-29T14:15:39.216Z,42.70
2019-05-29T14:18:09.932Z,42.50
2019-05-29T14:20:39.404Z,43.00
2019-05-29T14:23:09.573Z,43.40
2019-05-29T14:25:39.232Z,43.90
2019-05-29T14:28:08.838Z,44.40
2019-05-29T14:30:42.591Z,44.40
2019-05-29T14:33:13.498Z,44.40
2019-05-29T14:35:42.171Z,43.70
2019-05-29T14:38:14.923Z,42.70
2019-05-29T14:40:42.793Z,41.60
2019-05-29T14:43:15.443Z,40.60
2019-05-29T14:45:43.362Z,40.50
2019-05-29T14:48:13.302Z,39.70
2019-05-29T14:50:44.031Z,38.90
2019-05-29T14:53:13.676Z,38.60
2019-05-29T14:55:43.236Z,38.60
2019-05-29T14:58:13.932Z,39.20
2019-05-29T15:00:43.491Z,39.90
2019-05-29T15:03:13.597Z,40.60
2019-05-29T15:05:43.022Z,41.40
2019-05-29T15:08:13.983Z,41.90
2019-05-29T15:10:43.567Z,41.50
2019-05-29T15:13:13.750Z,41.60
2019-05-29T15:15:44.128Z,42.00
2019-05-29T15:18:17.295Z,42.70
2019-05-29T15:20:44.877Z,43.40
2019-05-29T15:23:15.465Z,43.70
2019-05-29T15:25:45.311Z,44.00
2019-05-29T15:28:17.399Z,44.40
2019-05-29T15:30:46.153Z,44.90
2019-05-29T15:33:16.816Z,45.20
2019-05-29T15:35:46.417Z,45.70
2019-05-29T15:38:17.058Z,46.00
2019-05-29T15:40:46.624Z,46.20
2019-05-29T15:43:17.206Z,46.70
2019-05-29T15:45:47.096Z,48.40
2019-05-29T15:48:17.390Z,48.10
2019-05-29T15:50:47.021Z,48.20
2019-05-29T15:53:17.293Z,48.40
2019-05-29T15:55:47.926Z,48.70
2019-05-29T15:58:18.021Z,48.80
2019-05-29T16:00:48.084Z,48.80
2019-05-29T16:03:19.419Z,49.00
2019-05-29T16:05:48.880Z,49.40
2019-05-29T16:08:18.439Z,49.60
2019-05-29T16:10:47.893Z,49.70
2019-05-29T16:13:19.068Z,50.00
2019-05-29T16:15:48.525Z,50.30
2019-05-29T16:18:27.079Z,50.30
2019-05-29T16:20:49.882Z,50.40
2019-05-29T16:23:35.223Z,51.20
2019-05-29T16:25:55.412Z,50.00
2019-05-29T16:28:25.068Z,49.90
2019-05-29T16:30:54.525Z,50.00
2019-05-29T16:33:23.965Z,50.50
2019-05-29T16:35:53.599Z,50.70
2019-05-29T16:38:23.037Z,51.10
2019-05-29T16:40:52.597Z,51.20
2019-05-29T16:43:22.423Z,50.80
2019-05-29T16:45:52.084Z,50.60
2019-05-29T16:48:22.712Z,50.80
2019-05-29T16:50:52.406Z,51.00
2019-05-29T16:53:23.101Z,51.40
2019-05-29T16:55:54.100Z,51.80
2019-05-29T16:58:23.948Z,52.20
2019-05-29T17:00:53.417Z,52.60
2019-05-29T17:03:23.798Z,52.70
2019-05-29T17:05:53.361Z,52.90
2019-05-29T17:08:22.796Z,52.90
2019-05-29T17:10:52.291Z,53.10
2019-05-29T17:13:24.765Z,53.30
2019-05-29T17:15:54.408Z,53.50
2019-05-29T17:18:25.010Z,53.30
2019-05-29T17:20:54.639Z,53.40
2019-05-29T17:23:25.045Z,53.50
2019-05-29T17:26:09.545Z,53.60
2019-05-29T17:28:28.063Z,53.80
2019-05-29T17:30:57.157Z,54.00
2019-05-29T17:33:27.431Z,54.30
2019-05-29T17:35:56.890Z,54.60
2019-05-29T17:38:29.102Z,54.60
2019-05-29T17:41:02.839Z,54.70
2019-05-29T17:43:32.224Z,54.90
2019-05-29T17:46:01.712Z,54.90
2019-05-29T17:48:31.140Z,55.00
2019-05-29T17:51:01.077Z,55.90
2019-05-29T17:53:30.493Z,55.50
2019-05-29T17:55:59.980Z,55.60
2019-05-29T17:58:29.447Z,55.80
2019-05-29T18:00:58.879Z,56.00
2019-05-29T18:03:28.505Z,56.30
2019-05-29T18:05:57.950Z,56.40
2019-05-29T18:08:27.409Z,56.60
2019-05-29T18:10:56.860Z,56.90
2019-05-29T18:13:27.434Z,57.60
2019-05-29T18:15:56.932Z,57.40
2019-05-29T18:18:27.826Z,57.00
2019-05-29T18:20:57.308Z,57.00
2019-05-29T18:23:28.058Z,57.20
2019-05-29T18:25:57.685Z,57.10
2019-05-29T18:28:28.148Z,57.40
2019-05-29T18:30:57.679Z,57.40
2019-05-29T18:33:27.375Z,57.40
2019-05-29T18:35:56.831Z,57.50
2019-05-29T18:38:26.661Z,58.00
2019-05-29T18:40:56.094Z,58.40
2019-05-29T18:43:28.645Z,58.20
2019-05-29T18:45:58.312Z,58.60
2019-05-29T18:48:27.814Z,58.50
2019-05-29T18:50:57.593Z,59.70
2019-05-29T18:53:27.096Z,58.90
2019-05-29T18:55:58.984Z,59.40
2019-05-29T18:58:28.592Z,60.00
2019-05-29T19:00:59.196Z,59.90
2019-05-29T19:03:29.595Z,60.10
2019-05-29T19:05:59.201Z,61.20
2019-05-29T19:08:29.712Z,60.80
2019-05-29T19:11:01.410Z,60.90
2019-05-29T19:13:31.964Z,61.10
2019-05-29T19:16:01.527Z,62.10
2019-05-29T19:18:32.291Z,61.50
2019-05-29T19:21:01.946Z,62.00
2019-05-29T19:23:32.817Z,62.10
2019-05-29T19:26:02.525Z,62.80
2019-05-29T19:28:32.846Z,62.60
2019-05-29T19:31:03.196Z,62.60
2019-05-29T19:33:33.566Z,63.40
2019-05-29T19:36:03.107Z,64.00
2019-05-29T19:38:32.540Z,64.80
2019-05-29T19:41:02.092Z,66.70
2019-05-29T19:43:32.435Z,66.70
2019-05-29T19:46:01.930Z,66.50
2019-05-29T19:48:31.404Z,67.40
2019-05-29T19:51:00.840Z,68.20
2019-05-29T19:53:31.390Z,68.00
2019-05-29T19:56:01.005Z,68.40
2019-05-29T19:58:30.488Z,69.40
2019-05-29T20:01:00.216Z,68.40
2019-05-29T20:03:30.364Z,68.50
2019-05-29T20:05:59.832Z,68.70
2019-05-29T20:08:34.034Z,70.60
2019-05-29T20:11:00.670Z,72.00
2019-05-29T20:13:30.150Z,72.60
2019-05-29T20:15:59.588Z,73.70
2019-05-29T20:18:30.042Z,73.70
2019-05-29T20:20:59.488Z,73.40
2019-05-29T20:23:28.990Z,74.50
2019-05-29T20:25:58.412Z,75.10
2019-05-29T20:28:27.970Z,75.00
2019-05-29T20:30:57.404Z,75.90
2019-05-29T20:33:27.041Z,76.20
2019-05-29T20:35:56.491Z,76.20
2019-05-29T20:38:25.937Z,77.20
2019-05-29T20:40:55.393Z,78.10
2019-05-29T20:43:25.030Z,78.70
2019-05-29T20:45:54.463Z,78.90
2019-05-29T20:48:23.942Z,79.80
2019-05-29T20:50:53.399Z,80.60
2019-05-29T20:53:22.815Z,79.80
2019-05-29T20:55:52.280Z,81.80
2019-05-29T20:58:24.811Z,82.50
2019-05-29T21:00:52.842Z,81.20
2019-05-29T21:03:22.284Z,82.30
2019-05-29T21:05:51.721Z,84.30
2019-05-29T21:08:21.212Z,85.80
2019-05-29T21:10:50.615Z,86.70
2019-05-29T21:13:20.067Z,87.80
2019-05-29T21:15:49.523Z,88.10
2019-05-29T21:18:18.925Z,89.00
2019-05-29T21:20:48.399Z,89.30
2019-05-29T21:23:17.838Z,88.90
2019-05-29T21:25:47.291Z,89.60
2019-05-29T21:28:16.717Z,88.50
2019-05-29T21:30:46.181Z,91.00
2019-05-29T21:33:15.582Z,90.90
2019-05-29T21:35:46.283Z,92.00
2019-05-29T21:38:15.898Z,90.90
2019-05-29T21:40:46.610Z,91.70
2019-05-29T21:43:16.182Z,93.00
2019-05-29T21:45:45.590Z,93.40
2019-05-29T21:48:15.056Z,93.10
2019-05-29T21:50:45.453Z,93.70
2019-05-29T21:53:15.031Z,94.90
2019-05-29T21:55:45.577Z,96.20
2019-05-29T21:58:15.084Z,96.40
2019-05-29T22:00:49.517Z,95.80
2019-05-29T22:03:19.417Z,96.40
2019-05-29T22:05:48.917Z,97.20
2019-05-29T22:08:18.413Z,96.90
2019-05-29T22:10:48.962Z,97.40
2019-05-29T22:13:18.586Z,98.00
2019-05-29T22:15:48.070Z,98.40
2019-05-29T22:18:17.616Z,99.10
2019-05-29T22:20:47.109Z,99.00
2019-05-29T22:23:16.531Z,99.70
2019-05-29T22:25:46.005Z,98.70
2019-05-29T22:28:15.441Z,99.90
2019-05-29T22:30:44.897Z,99.90
2019-05-29T22:33:14.387Z,99.90
2019-05-29T22:35:43.859Z,99.90
2019-05-29T22:38:13.308Z,99.90
2019-05-29T22:40:42.780Z,99.90
2019-05-29T22:43:12.232Z,99.90
2019-05-29T22:45:41.727Z,99.90
2019-05-29T22:48:11.148Z,99.90
2019-05-29T22:50:40.583Z,99.90
2019-05-29T22:53:10.067Z,99.90
2019-05-29T22:55:39.514Z,99.90
2019-05-29T22:58:08.965Z,99.90
2019-05-29T23:00:38.414Z,99.90
2019-05-29T23:03:07.892Z,99.90
2019-05-29T23:05:37.357Z,99.90
2019-05-29T23:08:06.775Z,99.90
2019-05-29T23:10:37.593Z,99.90
2019-05-29T23:13:07.081Z,99.90
2019-05-29T23:15:37.600Z,99.90
2019-05-29T23:18:07.032Z,99.90
2019-05-29T23:20:36.481Z,99.90
2019-05-29T23:23:05.957Z,99.90
2019-05-29T23:25:35.385Z,99.90
2019-05-29T23:28:05.887Z,99.90
2019-05-29T23:30:35.407Z,99.90
2019-05-29T23:33:04.859Z,99.90
2019-05-29T23:35:34.325Z,99.90
2019-05-29T23:38:03.801Z,99.90
2019-05-29T23:40:33.282Z,99.90
2019-05-29T23:43:03.670Z,99.90
2019-05-29T23:45:34.624Z,99.90
2019-05-29T23:48:04.084Z,99.90
2019-05-29T23:50:33.519Z,99.90
2019-05-29T23:53:04.011Z,99.90
2019-05-29T23:55:33.593Z,99.90
2019-05-29T23:58:07.732Z,99.90
